Time;durP1;ratioP1;P1;durP2;ratioP2;P2;SDS_P1;SDS_P2;PMS_P1;PMS_P2;Temp;Humidity;BMP_temperature;BMP_pressure;BME280_temperature;BME280_humidity;BME280_pressure;Samples;Min_cycle;Max_cycle;Signal;HPM_P1;HPM_P2
2023/06/17 00:00:20;;;;;;;0.00;0.00;;;17.40;89.80;;;;;;5080459;28;20181;-71
2023/06/17 00:02:46;;;;;;;0.00;0.00;;;17.40;90.10;;;;;;5079376;28;20173;-70
2023/06/17 00:05:11;;;;;;;0.00;0.00;;;17.40;90.30;;;;;;5059855;28;20178;-70
2023/06/17 00:07:39;;;;;;;0.10;0.10;;;17.30;90.60;;;;;;5051383;28;20244;-70
2023/06/17 00:10:05;;;;;;;0.00;0.00;;;17.30;90.80;;;;;;5059171;28;20219;-70
2023/06/17 00:12:31;;;;;;;0.00;0.00;;;17.20;91.10;;;;;;5069355;28;20663;-70
2023/06/17 00:15:01;;;;;;;0.00;0.00;;;17.20;91.20;;;;;;5070603;28;20184;-70
2023/06/17 00:17:30;;;;;;;0.00;0.00;;;17.20;91.50;;;;;;5070842;28;20696;-71
2023/06/17 00:19:56;;;;;;;0.00;0.00;;;17.10;92.00;;;;;;5073590;28;20184;-71
2023/06/17 00:22:25;;;;;;;0.00;0.00;;;17.10;92.20;;;;;;5074207;28;20184;-71
2023/06/17 00:24:51;;;;;;;0.00;0.00;;;17.00;92.40;;;;;;5073716;28;20181;-71
2023/06/17 00:27:17;;;;;;;0.20;0.20;;;17.00;92.60;;;;;;5073734;28;20232;-70
2023/06/17 00:29:43;;;;;;;0.00;0.00;;;16.90;92.70;;;;;;5072636;28;20188;-70
2023/06/17 00:32:08;;;;;;;0.00;0.00;;;16.90;93.00;;;;;;5072622;28;20254;-71
2023/06/17 00:34:34;;;;;;;0.00;0.00;;;16.80;93.20;;;;;;5072390;28;20212;-71
2023/06/17 00:37:00;;;;;;;0.00;0.00;;;16.80;93.30;;;;;;5072167;28;20204;-71
2023/06/17 00:39:26;;;;;;;0.00;0.00;;;16.70;93.50;;;;;;5072575;28;20342;-71
2023/06/17 00:41:51;;;;;;;0.00;0.00;;;16.70;94.50;;;;;;5073388;28;20181;-70
2023/06/17 00:44:17;;;;;;;0.00;0.00;;;16.60;95.00;;;;;;5073643;28;20188;-71
2023/06/17 00:46:48;;;;;;;0.10;0.10;;;16.60;95.40;;;;;;5072914;28;20566;-71
2023/06/17 00:49:14;;;;;;;0.00;0.00;;;16.60;95.70;;;;;;5073580;28;20576;-71
2023/06/17 00:51:39;;;;;;;0.00;0.00;;;16.60;95.90;;;;;;5073554;28;20227;-72
2023/06/17 00:54:07;;;;;;;0.00;0.00;;;16.60;96.30;;;;;;5073654;28;20185;-70
2023/06/17 00:56:34;;;;;;;0.00;0.00;;;16.60;96.50;;;;;;5073069;28;20689;-69
2023/06/17 00:59:01;;;;;;;0.00;0.00;;;16.60;96.60;;;;;;5072472;28;20655;-70
2023/06/17 01:01:29;;;;;;;0.00;0.00;;;16.50;96.80;;;;;;5073294;28;20185;-70
2023/06/17 01:03:59;;;;;;;0.00;0.00;;;16.50;96.80;;;;;;5072904;28;20173;-70
2023/06/17 01:06:45;;;;;;;0.13;0.13;;;16.40;97.00;;;;;;5073080;28;20172;-70
2023/06/17 01:09:15;;;;;;;0.00;0.00;;;16.30;97.20;;;;;;5072996;28;20185;-70
2023/06/17 01:11:42;;;;;;;0.05;0.05;;;16.30;97.40;;;;;;5072607;28;20242;-70
2023/06/17 01:14:10;;;;;;;0.00;0.00;;;16.20;97.60;;;;;;5073048;28;20543;-70
2023/06/17 01:16:40;;;;;;;0.00;0.00;;;16.20;97.70;;;;;;5072052;28;20192;-70
2023/06/17 01:19:18;;;;;;;0.00;0.00;;;16.20;97.80;;;;;;5073239;28;20181;-70
2023/06/17 01:21:51;;;;;;;0.00;0.00;;;16.20;97.90;;;;;;5073160;28;20187;-70
2023/06/17 01:24:28;;;;;;;0.00;0.00;;;16.20;98.00;;;;;;5073153;28;20181;-70
2023/06/17 01:26:56;;;;;;;0.00;0.00;;;16.10;97.90;;;;;;5072634;28;20232;-70
2023/06/17 01:29:23;;;;;;;0.20;0.20;;;16.10;98.10;;;;;;5072593;28;20234;-70
2023/06/17 01:31:50;;;;;;;0.00;0.00;;;16.10;98.20;;;;;;5073034;28;20176;-69
2023/06/17 01:34:19;;;;;;;0.00;0.00;;;16.00;98.30;;;;;;5072872;28;20195;-70
2023/06/17 01:36:47;;;;;;;0.60;0.60;;;16.00;98.30;;;;;;5072715;28;20199;-70
2023/06/17 01:39:18;;;;;;;0.00;0.00;;;16.00;98.30;;;;;;5072275;28;20590;-70
2023/06/17 01:41:48;;;;;;;0.10;0.10;;;16.00;98.30;;;;;;5072605;28;20173;-70
2023/06/17 01:44:15;;;;;;;0.00;0.00;;;15.90;98.60;;;;;;5072636;28;20230;-70
2023/06/17 01:46:42;;;;;;;0.00;0.00;;;15.90;98.40;;;;;;5072562;28;20201;-71
2023/06/17 01:49:08;;;;;;;0.00;0.00;;;15.90;98.50;;;;;;5072522;28;20189;-70
2023/06/17 01:51:33;;;;;;;0.00;0.00;;;15.80;98.70;;;;;;5072710;28;20184;-70
2023/06/17 01:53:59;;;;;;;0.00;0.00;;;15.80;98.90;;;;;;5072569;28;20188;-70
2023/06/17 01:56:24;;;;;;;0.00;0.00;;;15.80;99.00;;;;;;5072310;28;20644;-70
2023/06/17 01:58:50;;;;;;;0.10;0.10;;;15.80;99.10;;;;;;5072228;28;20193;-70
2023/06/17 02:01:16;;;;;;;0.00;0.00;;;15.70;99.30;;;;;;5072320;28;20180;-69
2023/06/17 02:03:42;;;;;;;0.00;0.00;;;15.70;99.30;;;;;;5072302;28;20216;-70
2023/06/17 02:06:07;;;;;;;0.00;0.00;;;15.70;99.40;;;;;;5072019;28;20177;-70
2023/06/17 02:08:34;;;;;;;0.00;0.00;;;15.70;99.60;;;;;;5071572;28;20569;-69
2023/06/17 02:11:00;;;;;;;0.00;0.00;;;15.70;99.60;;;;;;5070049;28;20187;-70
2023/06/17 02:13:25;;;;;;;0.28;0.28;;;15.60;99.70;;;;;;5071614;28;20189;-70
2023/06/17 02:15:51;;;;;;;0.00;0.00;;;15.60;99.80;;;;;;5070639;28;20578;-70
2023/06/17 02:18:17;;;;;;;0.00;0.00;;;15.50;99.90;;;;;;5071954;28;20558;-70
2023/06/17 02:20:42;;;;;;;0.10;0.10;;;15.50;99.90;;;;;;5070927;28;20198;-71
2023/06/17 02:23:08;;;;;;;0.00;0.00;;;15.40;99.90;;;;;;5071432;28;20192;-70
2023/06/17 02:25:33;;;;;;;0.00;0.00;;;15.40;99.90;;;;;;5071554;28;20172;-70
2023/06/17 02:27:59;;;;;;;0.00;0.00;;;15.40;99.90;;;;;;5071278;28;20787;-70
2023/06/17 02:30:25;;;;;;;0.00;0.00;;;15.40;99.90;;;;;;5071729;28;20180;-70
2023/06/17 02:32:50;;;;;;;0.00;0.00;;;15.40;99.90;;;;;;5071559;28;20184;-70
2023/06/17 02:35:16;;;;;;;0.00;0.00;;;15.30;99.90;;;;;;5071604;28;20181;-70
2023/06/17 02:37:42;;;;;;;0.00;0.00;;;15.30;99.90;;;;;;5071211;28;20177;-70
2023/06/17 02:40:09;;;;;;;0.00;0.00;;;15.30;99.90;;;;;;5070791;28;20644;-70
2023/06/17 02:42:38;;;;;;;0.00;0.00;;;15.30;99.90;;;;;;5070951;28;20181;-70
2023/06/17 02:45:05;;;;;;;0.00;0.00;;;15.20;99.90;;;;;;5071065;28;20187;-70
2023/06/17 02:47:31;;;;;;;0.10;0.10;;;15.20;99.90;;;;;;5071480;28;20217;-69
2023/06/17 02:49:56;;;;;;;0.00;0.00;;;15.20;99.90;;;;;;5071112;28;20181;-70
2023/06/17 02:52:23;;;;;;;0.30;0.30;;;15.10;99.90;;;;;;5071427;28;20188;-70
2023/06/17 02:54:50;;;;;;;0.00;0.00;;;15.10;99.90;;;;;;5071197;28;20176;-71
2023/06/17 02:57:16;;;;;;;0.00;0.00;;;15.10;99.90;;;;;;5071353;28;20628;-69
2023/06/17 02:59:42;;;;;;;0.00;0.00;;;15.10;99.90;;;;;;5071278;28;20188;-70
2023/06/17 03:02:08;;;;;;;0.10;0.10;;;15.00;99.90;;;;;;5071643;28;20660;-70
2023/06/17 03:04:36;;;;;;;0.00;0.00;;;15.00;99.90;;;;;;5071375;28;20259;-69
2023/06/17 03:07:03;;;;;;;0.10;0.10;;;15.00;99.90;;;;;;5071408;28;20224;-70
2023/06/17 03:09:29;;;;;;;0.00;0.00;;;15.00;99.90;;;;;;5071244;28;20176;-70
2023/06/17 03:11:55;;;;;;;0.00;0.00;;;15.00;99.90;;;;;;5051298;28;20190;-70
2023/06/17 03:14:20;;;;;;;0.00;0.00;;;15.00;99.90;;;;;;5052399;28;20675;-70
2023/06/17 03:16:46;;;;;;;0.00;0.00;;;14.90;99.90;;;;;;5070861;28;20176;-70
2023/06/17 03:19:13;;;;;;;0.00;0.00;;;14.90;99.90;;;;;;5071350;28;20177;-71
2023/06/17 03:21:40;;;;;;;0.00;0.00;;;14.90;99.90;;;;;;5071110;28;20238;-71
2023/06/17 03:24:06;;;;;;;0.00;0.00;;;14.90;99.90;;;;;;5070358;28;20216;-71
2023/06/17 03:26:32;;;;;;;0.00;0.00;;;14.80;99.90;;;;;;5070232;28;20238;-71
2023/06/17 03:28:58;;;;;;;0.10;0.10;;;14.80;99.90;;;;;;5070757;28;20184;-71
2023/06/17 03:31:23;;;;;;;0.10;0.10;;;14.80;99.90;;;;;;5070735;28;20181;-71
2023/06/17 03:33:52;;;;;;;0.00;0.00;;;14.80;99.90;;;;;;5070783;28;20226;-71
2023/06/17 03:36:19;;;;;;;0.00;0.00;;;14.80;99.90;;;;;;5070182;28;20216;-71
2023/06/17 03:38:45;;;;;;;0.00;0.00;;;14.80;99.90;;;;;;5070458;28;20535;-71
2023/06/17 03:41:11;;;;;;;0.10;0.10;;;14.90;99.90;;;;;;5070404;28;20176;-71
2023/06/17 03:43:37;;;;;;;0.00;0.00;;;14.90;99.90;;;;;;5069408;28;20181;-71
2023/06/17 03:46:02;;;;;;;0.00;0.00;;;14.90;99.90;;;;;;5070804;28;20169;-71
2023/06/17 03:48:28;;;;;;;0.10;0.10;;;14.90;99.90;;;;;;5070531;28;20208;-70
2023/06/17 03:50:53;;;;;;;0.00;0.00;;;15.00;99.90;;;;;;5070484;28;20251;-71
2023/06/17 03:53:19;;;;;;;0.05;0.05;;;14.90;99.90;;;;;;5071251;28;20183;-71
2023/06/17 03:55:46;;;;;;;0.25;0.22;;;14.90;99.90;;;;;;5073334;28;20276;-71
2023/06/17 03:58:14;;;;;;;0.00;0.00;;;14.90;99.90;;;;;;5074723;28;20165;-71
2023/06/17 04:00:41;;;;;;;0.00;0.00;;;14.90;99.90;;;;;;5074530;28;20216;-70
2023/06/17 04:03:07;;;;;;;0.00;0.00;;;14.90;99.90;;;;;;5074527;28;20260;-71
2023/06/17 04:05:33;;;;;;;0.00;0.00;;;15.00;99.90;;;;;;5074575;28;20260;-70
2023/06/17 04:08:02;;;;;;;0.00;0.00;;;15.00;99.90;;;;;;5074054;28;20204;-71
2023/06/17 04:10:29;;;;;;;0.00;0.00;;;15.10;99.90;;;;;;5074295;28;20309;-71
2023/06/17 04:12:54;;;;;;;0.00;0.00;;;15.10;99.90;;;;;;5074087;28;20180;-71
2023/06/17 04:15:20;;;;;;;0.00;0.00;;;15.20;99.90;;;;;;5074352;28;20663;-71
2023/06/17 04:17:45;;;;;;;0.00;0.00;;;15.30;99.90;;;;;;5074139;28;20190;-71
2023/06/17 04:20:12;;;;;;;0.00;0.00;;;15.50;99.90;;;;;;5074468;28;20172;-70
2023/06/17 04:22:39;;;;;;;0.00;0.00;;;15.70;99.90;;;;;;5073901;28;20177;-70
2023/06/17 04:25:06;;;;;;;0.00;0.00;;;15.90;99.90;;;;;;5074067;28;20563;-71
2023/06/17 04:27:32;;;;;;;0.00;0.00;;;16.20;99.90;;;;;;5073097;28;20553;-70
2023/06/17 04:29:57;;;;;;;0.10;0.10;;;16.50;99.90;;;;;;5073820;28;20185;-70
2023/06/17 04:32:26;;;;;;;0.00;0.00;;;16.70;99.90;;;;;;5073306;28;20280;-70
2023/06/17 04:34:52;;;;;;;0.00;0.00;;;17.10;99.50;;;;;;5073757;28;20175;-70
2023/06/17 04:37:18;;;;;;;0.00;0.00;;;17.40;98.50;;;;;;5073321;28;20181;-70
2023/06/17 04:39:44;;;;;;;0.08;0.08;;;17.80;98.00;;;;;;5073390;28;20216;-70
2023/06/17 04:42:10;;;;;;;0.10;0.10;;;18.10;97.50;;;;;;5072646;28;20268;-70
2023/06/17 04:44:37;;;;;;;0.43;0.43;;;18.40;96.90;;;;;;5073235;28;20169;-70
2023/06/17 04:47:04;;;;;;;0.20;0.20;;;18.60;96.20;;;;;;5072893;28;20208;-70
2023/06/17 04:49:31;;;;;;;0.15;0.15;;;18.70;95.50;;;;;;5072471;28;20697;-69
2023/06/17 04:51:56;;;;;;;0.00;0.00;;;18.80;95.30;;;;;;5073534;28;20878;-70
2023/06/17 04:54:24;;;;;;;0.00;0.00;;;18.90;95.20;;;;;;5073239;28;20258;-71
2023/06/17 04:56:51;;;;;;;0.00;0.00;;;19.20;95.00;;;;;;5073243;28;20224;-71
2023/06/17 04:59:19;;;;;;;0.00;0.00;;;19.50;94.50;;;;;;5072969;28;20177;-71
2023/06/17 05:01:45;;;;;;;0.00;0.00;;;19.80;93.90;;;;;;5073186;28;20200;-71
2023/06/17 05:04:10;;;;;;;0.00;0.00;;;20.10;93.30;;;;;;5072720;28;20173;-71
2023/06/17 05:06:36;;;;;;;0.00;0.00;;;20.30;92.60;;;;;;5073104;28;20632;-71
2023/06/17 05:09:02;;;;;;;0.10;0.10;;;20.60;91.80;;;;;;5072841;28;20279;-71
2023/06/17 05:11:27;;;;;;;0.10;0.10;;;20.80;91.80;;;;;;5073209;28;20173;-72
2023/06/17 05:13:53;;;;;;;0.00;0.00;;;21.20;91.30;;;;;;5072802;28;20673;-73
2023/06/17 05:16:18;;;;;;;0.00;0.00;;;21.60;90.50;;;;;;5072545;28;20950;-68
2023/06/17 05:18:44;;;;;;;0.00;0.00;;;22.10;89.40;;;;;;5072207;28;20538;-65
2023/06/17 05:21:09;;;;;;;0.00;0.00;;;22.40;87.50;;;;;;5072020;28;20291;-67
2023/06/17 05:23:35;;;;;;;0.00;0.00;;;22.80;85.80;;;;;;5072734;28;20183;-67
2023/06/17 05:26:00;;;;;;;0.00;0.00;;;23.00;84.50;;;;;;5072778;28;20262;-65
2023/06/17 05:28:26;;;;;;;0.00;0.00;;;23.30;82.90;;;;;;5073285;28;20286;-66
2023/06/17 05:30:52;;;;;;;0.00;0.00;;;23.70;82.00;;;;;;5072175;28;20326;-67
2023/06/17 05:33:18;;;;;;;0.00;0.00;;;24.10;80.50;;;;;;5067941;28;20185;-66
2023/06/17 05:35:43;;;;;;;0.00;0.00;;;24.40;79.00;;;;;;5061786;28;20182;-69
2023/06/17 05:38:09;;;;;;;0.00;0.00;;;24.70;77.30;;;;;;5063721;28;20188;-71
2023/06/17 05:40:34;;;;;;;0.00;0.00;;;25.00;75.90;;;;;;5072622;28;20185;-73
2023/06/17 05:43:00;;;;;;;0.00;0.00;;;25.40;74.20;;;;;;5072217;28;20277;-68
2023/06/17 05:45:25;;;;;;;0.10;0.10;;;25.50;73.10;;;;;;5071628;28;20292;-72
2023/06/17 05:47:51;;;;;;;0.00;0.00;;;25.80;72.40;;;;;;5071851;28;20220;-71
2023/06/17 05:50:16;;;;;;;0.00;0.00;;;26.20;70.70;;;;;;5072459;28;20658;-70
2023/06/17 05:52:44;;;;;;;0.00;0.00;;;26.50;69.70;;;;;;5071601;28;20263;-70
2023/06/17 05:55:10;;;;;;;0.00;0.00;;;27.00;67.90;;;;;;5071256;28;20184;-70
2023/06/17 05:57:35;;;;;;;0.00;0.00;;;27.50;65.90;;;;;;5072340;28;20177;-70
2023/06/17 06:00:01;;;;;;;0.00;0.00;;;27.80;63.30;;;;;;5072357;28;20527;-70
2023/06/17 06:02:27;;;;;;;0.00;0.00;;;28.20;61.50;;;;;;5072156;28;20189;-71
2023/06/17 06:04:52;;;;;;;0.00;0.00;;;28.30;61.40;;;;;;5072248;28;20180;-71
2023/06/17 06:07:18;;;;;;;0.00;0.00;;;28.40;61.00;;;;;;5072278;28;20211;-71
2023/06/17 06:09:43;;;;;;;0.00;0.00;;;28.60;60.60;;;;;;5072018;28;20186;-70
2023/06/17 06:12:09;;;;;;;0.00;0.00;;;29.00;59.30;;;;;;5072369;28;20181;-71
2023/06/17 06:14:34;;;;;;;0.00;0.00;;;29.30;58.10;;;;;;5072186;28;20165;-70
2023/06/17 06:17:00;;;;;;;0.00;0.00;;;29.60;57.20;;;;;;5071277;28;20635;-71
2023/06/17 06:19:25;;;;;;;0.10;0.10;;;30.10;56.30;;;;;;5072012;28;20222;-70
2023/06/17 06:21:51;;;;;;;0.10;0.10;;;30.40;55.40;;;;;;5072101;28;20176;-71
2023/06/17 06:24:16;;;;;;;0.00;0.00;;;30.60;55.10;;;;;;5072099;28;20247;-71
2023/06/17 06:26:42;;;;;;;0.00;0.00;;;30.80;54.10;;;;;;5071632;28;20607;-71
2023/06/17 06:29:09;;;;;;;0.00;0.00;;;31.00;53.40;;;;;;5070602;28;20544;-71
2023/06/17 06:31:34;;;;;;;0.00;0.00;;;31.40;53.50;;;;;;5072052;28;20171;-70
2023/06/17 06:34:00;;;;;;;0.00;0.00;;;31.90;52.80;;;;;;5071898;28;20179;-70
2023/06/17 06:36:25;;;;;;;0.05;0.05;;;32.30;51.70;;;;;;5071861;28;20168;-70
2023/06/17 06:38:51;;;;;;;0.00;0.00;;;32.60;51.00;;;;;;5071422;28;20182;-71
2023/06/17 06:41:16;;;;;;;0.00;0.00;;;33.10;49.90;;;;;;5062682;28;20187;-71
2023/06/17 06:43:42;;;;;;;0.00;0.00;;;33.40;49.60;;;;;;5069974;28;20217;-71
2023/06/17 06:46:07;;;;;;;0.00;0.00;;;33.70;48.90;;;;;;5051698;28;20231;-71
2023/06/17 06:48:33;;;;;;;0.00;0.00;;;33.90;47.90;;;;;;5058602;28;20226;-71
2023/06/17 06:50:59;;;;;;;0.05;0.05;;;34.20;46.90;;;;;;5065169;28;20243;-70
2023/06/17 06:53:24;;;;;;;0.00;0.00;;;34.40;47.00;;;;;;5051474;28;20212;-71
2023/06/17 06:55:50;;;;;;;0.00;0.00;;;34.60;46.00;;;;;;5051479;28;20177;-71
2023/06/17 06:58:16;;;;;;;0.00;0.00;;;34.90;45.40;;;;;;5051386;28;20592;-71
2023/06/17 07:00:41;;;;;;;0.00;0.00;;;35.10;45.30;;;;;;5051235;28;20248;-71
2023/06/17 07:03:07;;;;;;;0.00;0.00;;;35.30;45.40;;;;;;5051112;28;20612;-70
2023/06/17 07:05:32;;;;;;;0.00;0.00;;;35.50;45.60;;;;;;5051238;28;20259;-70
2023/06/17 07:07:59;;;;;;;0.00;0.00;;;35.70;45.10;;;;;;5050988;28;20208;-71
2023/06/17 07:10:25;;;;;;;0.00;0.00;;;35.80;45.10;;;;;;5051069;28;20169;-71
2023/06/17 07:12:50;;;;;;;0.15;0.15;;;36.00;45.40;;;;;;5051250;28;20185;-71
2023/06/17 07:15:16;;;;;;;0.00;0.00;;;36.20;44.40;;;;;;5051260;28;20184;-71
2023/06/17 07:17:41;;;;;;;0.00;0.00;;;36.20;44.20;;;;;;5051733;28;20200;-70
2023/06/17 07:20:07;;;;;;;0.00;0.00;;;36.30;43.60;;;;;;5071471;28;20176;-70
2023/06/17 07:22:33;;;;;;;0.00;0.00;;;36.20;44.10;;;;;;5071361;28;20179;-71
2023/06/17 07:24:59;;;;;;;0.00;0.00;;;36.20;43.80;;;;;;5071258;28;20623;-71
2023/06/17 07:27:24;;;;;;;0.00;0.00;;;36.20;43.60;;;;;;5070918;28;20235;-71
2023/06/17 07:29:50;;;;;;;0.00;0.00;;;36.40;43.30;;;;;;5071176;28;20172;-70
2023/06/17 07:32:16;;;;;;;0.00;0.00;;;36.60;43.20;;;;;;5078139;28;20268;-70
2023/06/17 07:34:41;;;;;;;0.00;0.00;;;36.70;42.90;;;;;;5091274;28;20266;-71
2023/06/17 07:37:07;;;;;;;0.00;0.00;;;36.60;42.60;;;;;;5091522;28;20251;-71
2023/06/17 07:39:32;;;;;;;0.00;0.00;;;36.80;42.00;;;;;;5073292;28;20634;-69
2023/06/17 07:41:58;;;;;;;0.00;0.00;;;36.80;42.10;;;;;;5075195;28;20194;-70
2023/06/17 07:44:23;;;;;;;0.03;0.03;;;37.00;42.50;;;;;;5070962;28;20240;-71
2023/06/17 07:46:49;;;;;;;0.00;0.00;;;37.20;41.40;;;;;;5069931;28;20183;-70
2023/06/17 07:49:14;;;;;;;0.00;0.00;;;37.30;41.50;;;;;;5071069;28;20644;-71
2023/06/17 07:51:40;;;;;;;0.00;0.00;;;37.40;40.60;;;;;;5071104;28;20172;-70
2023/06/17 07:54:05;;;;;;;0.00;0.00;;;37.50;39.20;;;;;;5071027;28;20184;-70
2023/06/17 07:56:31;;;;;;;0.00;0.00;;;37.60;37.70;;;;;;5071006;28;20168;-70
2023/06/17 07:58:57;;;;;;;0.00;0.00;;;37.60;38.00;;;;;;5071095;28;20497;-71
2023/06/17 08:01:22;;;;;;;0.00;0.00;;;37.30;38.80;;;;;;5071081;28;20173;-70
2023/06/17 08:03:48;;;;;;;0.00;0.00;;;37.20;38.70;;;;;;5070986;28;20180;-70
2023/06/17 08:06:14;;;;;;;0.00;0.00;;;37.00;38.50;;;;;;5070842;28;20173;-70
2023/06/17 08:08:40;;;;;;;0.00;0.00;;;37.00;38.30;;;;;;5070858;28;20216;-70
2023/06/17 08:11:06;;;;;;;0.00;0.00;;;37.10;37.80;;;;;;5071000;28;20540;-70
2023/06/17 08:13:31;;;;;;;0.00;0.00;;;37.00;37.90;;;;;;5070912;28;20192;-70
2023/06/17 08:15:57;;;;;;;0.00;0.00;;;37.00;38.70;;;;;;5070742;28;20218;-70
2023/06/17 08:18:22;;;;;;;0.00;0.00;;;37.00;37.50;;;;;;5070931;28;20180;-70
2023/06/17 08:20:48;;;;;;;0.00;0.00;;;36.90;37.70;;;;;;5070749;28;20176;-70
2023/06/17 08:23:14;;;;;;;0.00;0.00;;;36.90;38.40;;;;;;5071024;28;20179;-71
2023/06/17 08:25:40;;;;;;;0.10;0.10;;;36.80;38.30;;;;;;5069465;28;20246;-70
2023/06/17 08:28:05;;;;;;;0.00;0.00;;;36.70;38.70;;;;;;5070585;28;20224;-70
2023/06/17 08:30:31;;;;;;;0.00;0.00;;;36.80;38.60;;;;;;5070792;28;20346;-70
2023/06/17 08:32:57;;;;;;;0.00;0.00;;;36.70;37.90;;;;;;5070591;28;20707;-70
2023/06/17 08:35:23;;;;;;;0.00;0.00;;;36.60;38.70;;;;;;5070930;28;20512;-70
2023/06/17 08:37:48;;;;;;;0.00;0.00;;;36.60;38.50;;;;;;5070675;28;20187;-70
2023/06/17 08:40:17;;;;;;;0.00;0.00;;;36.60;39.70;;;;;;5072730;28;20266;-70
2023/06/17 08:42:43;;;;;;;0.00;0.00;;;36.60;38.20;;;;;;5074000;28;20237;-70
2023/06/17 08:45:09;;;;;;;0.00;0.00;;;36.20;37.90;;;;;;5074144;28;20575;-70
2023/06/17 08:47:35;;;;;;;0.00;0.00;;;36.10;38.50;;;;;;5073756;28;20702;-70
2023/06/17 08:50:02;;;;;;;0.00;0.00;;;36.00;39.00;;;;;;5074044;28;20215;-71
2023/06/17 08:52:31;;;;;;;0.00;0.00;;;36.00;38.20;;;;;;5073866;28;20271;-72
2023/06/17 08:54:58;;;;;;;0.00;0.00;;;36.20;38.80;;;;;;5074129;28;20176;-70
2023/06/17 08:57:26;;;;;;;0.00;0.00;;;36.30;36.90;;;;;;5074060;28;20207;-69
2023/06/17 08:59:52;;;;;;;0.00;0.00;;;36.00;36.80;;;;;;5073875;28;20191;-69
2023/06/17 09:02:18;;;;;;;0.00;0.00;;;35.80;37.90;;;;;;5073833;28;20760;-69
2023/06/17 09:04:43;;;;;;;0.10;0.10;;;35.70;38.40;;;;;;5073638;28;20176;-69
2023/06/17 09:07:09;;;;;;;0.00;0.00;;;35.60;38.70;;;;;;5073784;28;20211;-69
2023/06/17 09:09:35;;;;;;;0.05;0.03;;;35.40;38.70;;;;;;5073641;28;20180;-68
2023/06/17 09:12:05;;;;;;;0.05;0.05;;;35.40;39.50;;;;;;5073340;28;20568;-69
2023/06/17 09:14:31;;;;;;;0.15;0.15;;;35.30;38.10;;;;;;5072107;28;20249;-68
2023/06/17 09:16:57;;;;;;;0.10;0.10;;;35.10;39.30;;;;;;5073258;28;20179;-69
2023/06/17 09:19:23;;;;;;;0.00;0.00;;;35.20;38.60;;;;;;5073514;28;20529;-69
2023/06/17 09:21:48;;;;;;;0.13;0.10;;;34.80;37.90;;;;;;5073415;28;20176;-68
2023/06/17 09:24:14;;;;;;;0.00;0.00;;;34.80;37.40;;;;;;5073136;28;20543;-69
2023/06/17 09:26:44;;;;;;;0.00;0.00;;;35.10;38.20;;;;;;5073115;28;20588;-69
2023/06/17 09:29:12;;;;;;;0.00;0.00;;;35.30;37.80;;;;;;5073399;28;20180;-69
2023/06/17 09:31:54;;;;;;;0.00;0.00;;;35.50;37.30;;;;;;5073232;28;20176;-69
2023/06/17 09:34:21;;;;;;;0.30;0.10;;;35.70;37.40;;;;;;5073350;28;20180;-69
2023/06/17 09:36:54;;;;;;;0.00;0.00;;;35.70;36.70;;;;;;5072827;28;20199;-69
2023/06/17 09:39:28;;;;;;;0.00;0.00;;;35.90;36.70;;;;;;5073102;28;20234;-68
2023/06/17 09:41:54;;;;;;;0.00;0.00;;;36.20;36.10;;;;;;5073010;28;20184;-68
2023/06/17 09:44:22;;;;;;;0.00;0.00;;;36.30;36.90;;;;;;5077030;28;20183;-69
2023/06/17 09:46:50;;;;;;;0.00;0.00;;;35.80;34.10;;;;;;5074375;28;20827;-69
2023/06/17 09:49:23;;;;;;;0.00;0.00;;;35.20;33.40;;;;;;5071821;28;20570;-69
2023/06/17 09:51:51;;;;;;;0.00;0.00;;;34.60;33.90;;;;;;5072678;28;20176;-68
2023/06/17 09:54:18;;;;;;;0.00;0.00;;;34.60;35.30;;;;;;5072807;28;20180;-71
2023/06/17 09:56:45;;;;;;;0.00;0.00;;;34.90;36.00;;;;;;5072812;28;20263;-70
2023/06/17 09:59:11;;;;;;;0.00;0.00;;;35.10;35.60;;;;;;5072701;28;20191;-70
2023/06/17 10:01:40;;;;;;;0.00;0.00;;;35.40;35.70;;;;;;5072528;28;20265;-70
2023/06/17 10:04:07;;;;;;;0.10;0.10;;;35.70;35.60;;;;;;5072580;28;20264;-70
2023/06/17 10:06:37;;;;;;;0.15;0.15;;;35.80;35.10;;;;;;5072563;28;20546;-70
2023/06/17 10:09:06;;;;;;;0.00;0.00;;;35.80;34.50;;;;;;5072473;28;20597;-70
2023/06/17 10:11:33;;;;;;;0.00;0.00;;;35.90;32.70;;;;;;5072665;28;20180;-70
2023/06/17 10:14:00;;;;;;;0.00;0.00;;;35.80;32.50;;;;;;5072296;28;20176;-70
2023/06/17 10:16:30;;;;;;;0.00;0.00;;;35.80;33.40;;;;;;5072856;28;20210;-70
2023/06/17 10:18:58;;;;;;;0.00;0.00;;;36.10;33.50;;;;;;5072328;28;20169;-70
2023/06/17 10:21:27;;;;;;;0.00;0.00;;;36.30;33.60;;;;;;5072635;28;20180;-70
2023/06/17 10:23:55;;;;;;;0.00;0.00;;;36.40;32.80;;;;;;5071518;28;20176;-70
2023/06/17 10:26:21;;;;;;;0.00;0.00;;;36.40;33.30;;;;;;5072562;28;20184;-70
2023/06/17 10:28:53;;;;;;;0.00;0.00;;;36.10;32.70;;;;;;5073742;28;20350;-70
2023/06/17 10:31:24;;;;;;;0.00;0.00;;;35.80;33.00;;;;;;5072208;28;20187;-70
2023/06/17 10:33:51;;;;;;;0.15;0.15;;;35.40;34.80;;;;;;5072049;28;20176;-70
2023/06/17 10:36:19;;;;;;;0.20;0.20;;;35.30;34.60;;;;;;5072144;28;20565;-70
2023/06/17 10:38:56;;;;;;;0.10;0.10;;;35.20;35.30;;;;;;5071871;28;20180;-69
2023/06/17 10:41:21;;;;;;;0.00;0.00;;;35.30;34.10;;;;;;5072246;28;20230;-70
2023/06/17 10:43:49;;;;;;;0.00;0.00;;;35.40;34.60;;;;;;5071717;28;20184;-70
2023/06/17 10:46:24;;;;;;;0.00;0.00;;;35.30;35.30;;;;;;5071547;28;20651;-70
2023/06/17 10:48:50;;;;;;;0.00;0.00;;;35.20;33.90;;;;;;5071746;28;20253;-69
2023/06/17 10:51:16;;;;;;;0.00;0.00;;;34.90;33.30;;;;;;5071873;28;20192;-70
2023/06/17 10:53:51;;;;;;;0.00;0.00;;;34.80;33.30;;;;;;5071761;28;20215;-70
2023/06/17 10:56:17;;;;;;;0.03;0.03;;;34.70;33.10;;;;;;5071762;28;20249;-71
2023/06/17 10:58:45;;;;;;;0.00;0.00;;;34.30;33.00;;;;;;5071794;28;20609;-70
2023/06/17 11:01:11;;;;;;;0.00;0.00;;;33.90;34.20;;;;;;5071905;28;20702;-71
2023/06/17 11:03:37;;;;;;;0.38;0.22;;;33.20;34.60;;;;;;5071229;28;20177;-71
2023/06/17 11:06:05;;;;;;;0.00;0.00;;;32.90;35.40;;;;;;5071859;28;20168;-70
2023/06/17 11:08:32;;;;;;;0.00;0.00;;;32.70;34.60;;;;;;5071480;28;20702;-70
2023/06/17 11:11:14;;;;;;;0.00;0.00;;;33.10;35.90;;;;;;5071634;28;20179;-70
2023/06/17 11:13:44;;;;;;;0.00;0.00;;;33.60;34.70;;;;;;5071484;28;20179;-70
2023/06/17 11:16:10;;;;;;;0.00;0.00;;;33.60;33.60;;;;;;5071620;28;20180;-70
2023/06/17 11:18:38;;;;;;;0.00;0.00;;;33.60;34.10;;;;;;5071172;28;20183;-68
2023/06/17 11:21:05;;;;;;;0.00;0.00;;;33.80;34.70;;;;;;5071626;28;20184;-69
2023/06/17 11:23:31;;;;;;;0.00;0.00;;;34.00;34.20;;;;;;5071537;28;20669;-68
2023/06/17 11:25:56;;;;;;;0.00;0.00;;;34.20;34.10;;;;;;5071181;28;20176;-69
2023/06/17 11:28:22;;;;;;;0.00;0.00;;;34.40;32.70;;;;;;5071172;28;20227;-69
2023/06/17 11:30:49;;;;;;;0.00;0.00;;;34.50;32.40;;;;;;5071238;28;20857;-68
2023/06/17 11:33:18;;;;;;;0.00;0.00;;;34.80;32.30;;;;;;5071270;28;20727;-68
2023/06/17 11:35:43;;;;;;;0.10;0.10;;;35.00;32.90;;;;;;5071272;28;20168;-68
2023/06/17 11:38:09;;;;;;;0.43;0.05;;;34.90;32.10;;;;;;5070028;28;20176;-68
2023/06/17 11:40:35;;;;;;;0.03;0.03;;;34.90;33.10;;;;;;5071125;28;20180;-68
2023/06/17 11:43:01;;;;;;;0.00;0.00;;;35.10;32.70;;;;;;5071037;28;20184;-68
2023/06/17 11:45:28;;;;;;;0.00;0.00;;;34.90;33.10;;;;;;5069192;28;20270;-69
2023/06/17 11:47:53;;;;;;;0.00;0.00;;;34.60;33.10;;;;;;5050908;28;20231;-68
2023/06/17 11:50:19;;;;;;;0.00;0.00;;;34.20;33.60;;;;;;5051169;28;20180;-68
2023/06/17 11:52:54;;;;;;;0.00;0.00;;;34.10;33.90;;;;;;5051211;28;20172;-69
2023/06/17 11:55:20;;;;;;;0.00;0.00;;;34.10;33.40;;;;;;5051265;28;20172;-68
2023/06/17 11:57:46;;;;;;;0.00;0.00;;;34.30;33.40;;;;;;5050939;28;20184;-69
2023/06/17 12:00:12;;;;;;;0.00;0.00;;;34.50;33.30;;;;;;5049759;28;20177;-69
2023/06/17 12:02:38;;;;;;;0.00;0.00;;;34.60;33.70;;;;;;5050782;28;20263;-70
2023/06/17 12:05:05;;;;;;;0.00;0.00;;;34.60;33.40;;;;;;5051073;28;20180;-69
2023/06/17 12:07:41;;;;;;;0.00;0.00;;;34.70;33.20;;;;;;5051080;28;20330;-68
2023/06/17 12:10:07;;;;;;;0.15;0.10;;;34.60;33.70;;;;;;5050973;28;20181;-69
2023/06/17 12:12:35;;;;;;;0.00;0.00;;;34.40;32.80;;;;;;5050705;28;20200;-68
2023/06/17 12:15:09;;;;;;;0.00;0.00;;;34.40;34.10;;;;;;5052625;28;20173;-69
2023/06/17 12:17:43;;;;;;;0.00;0.00;;;34.60;33.80;;;;;;5053377;28;20193;-69
2023/06/17 12:20:16;;;;;;;0.10;0.10;;;34.70;33.20;;;;;;5054787;28;20183;-69
2023/06/17 12:22:43;;;;;;;0.00;0.00;;;34.80;32.60;;;;;;5054591;28;20219;-69
2023/06/17 12:25:09;;;;;;;0.00;0.00;;;34.80;32.90;;;;;;5054757;28;20188;-69
2023/06/17 12:27:35;;;;;;;0.03;0.03;;;34.80;32.10;;;;;;5054160;28;20729;-68
2023/06/17 12:30:02;;;;;;;0.00;0.00;;;34.80;32.70;;;;;;5053315;28;20177;-70
2023/06/17 12:32:28;;;;;;;0.00;0.00;;;34.60;33.00;;;;;;5054610;28;20177;-69
2023/06/17 12:34:54;;;;;;;0.00;0.00;;;34.60;32.60;;;;;;5054357;28;20640;-69
2023/06/17 12:37:26;;;;;;;0.00;0.00;;;34.40;32.40;;;;;;5054435;28;20180;-69
2023/06/17 12:39:53;;;;;;;0.00;0.00;;;34.20;33.20;;;;;;5054236;28;20176;-69
2023/06/17 12:42:18;;;;;;;0.00;0.00;;;34.00;33.60;;;;;;5054183;28;20176;-69
2023/06/17 12:44:47;;;;;;;0.75;0.75;;;34.10;33.20;;;;;;5055517;28;20173;-68